createdAt,value
2022-12-11T00:02:04.772Z,5.94
2022-12-11T00:04:32.277Z,5.52
2022-12-11T00:06:59.026Z,5.39
2022-12-11T00:09:25.855Z,5.69
2022-12-11T00:11:52.653Z,5.42
2022-12-11T00:14:19.364Z,5.91
2022-12-11T00:16:47.982Z,5.55
2022-12-11T00:19:15.566Z,4.90
2022-12-11T00:21:42.506Z,4.97
2022-12-11T00:24:09.306Z,5.11
2022-12-11T00:26:36.046Z,5.89
2022-12-11T00:29:02.877Z,5.15
2022-12-11T00:31:29.672Z,5.98
2022-12-11T00:33:56.457Z,5.97
2022-12-11T00:36:26.902Z,5.50
2022-12-11T00:38:55.346Z,6.31
2022-12-11T00:41:22.353Z,5.54
2022-12-11T00:43:49.298Z,5.64
2022-12-11T00:46:16.481Z,6.32
2022-12-11T00:48:43.306Z,5.82
2022-12-11T00:51:10.841Z,5.89
2022-12-11T00:53:38.755Z,5.63
2022-12-11T00:56:17.220Z,5.91
2022-12-11T00:58:44.620Z,5.90
2022-12-11T01:01:15.624Z,6.73
2022-12-11T01:03:42.634Z,6.48
2022-12-11T01:06:14.237Z,5.17
2022-12-11T01:08:44.205Z,5.18
2022-12-11T01:11:20.380Z,5.83
2022-12-11T01:13:47.181Z,5.40
2022-12-11T01:16:15.950Z,5.19
2022-12-11T01:18:43.994Z,5.45
2022-12-11T01:21:13.380Z,5.98
2022-12-11T01:23:40.814Z,5.86
2022-12-11T01:26:15.476Z,5.57
2022-12-11T01:28:42.783Z,5.20
2022-12-11T01:31:11.030Z,5.70
2022-12-11T01:33:38.972Z,5.62
2022-12-11T01:36:14.420Z,5.70
2022-12-11T01:38:41.642Z,5.93
2022-12-11T01:41:09.220Z,6.29
2022-12-11T01:43:55.826Z,6.14
2022-12-11T01:46:22.624Z,6.35
2022-12-11T01:48:49.390Z,6.34
2022-12-11T01:51:16.680Z,6.51
2022-12-11T01:53:46.470Z,6.60
2022-12-11T01:56:13.326Z,6.29
2022-12-11T01:58:48.090Z,6.11
2022-12-11T02:01:19.153Z,5.54
2022-12-11T02:03:45.899Z,6.13
2022-12-11T02:06:48.859Z,6.46
2022-12-11T02:09:21.048Z,6.18
2022-12-11T02:12:00.088Z,6.31
2022-12-11T02:14:41.573Z,6.09
2022-12-11T02:17:20.248Z,6.64
2022-12-11T02:19:55.810Z,6.63
2022-12-11T02:22:41.641Z,6.41
2022-12-11T02:25:15.108Z,6.41
2022-12-11T02:27:46.316Z,6.50
2022-12-11T02:30:15.997Z,6.75
2022-12-11T02:32:58.372Z,6.73
2022-12-11T02:35:35.062Z,6.37
2022-12-11T02:38:09.544Z,6.97
2022-12-11T02:40:39.528Z,6.53
2022-12-11T02:43:10.552Z,6.70
2022-12-11T02:45:39.375Z,6.32
2022-12-11T02:48:08.586Z,6.34
2022-12-11T02:50:38.123Z,6.70
2022-12-11T02:53:06.573Z,6.27
2022-12-11T02:55:34.047Z,6.83
2022-12-11T02:58:16.020Z,6.43
2022-12-11T03:00:44.867Z,5.62
2022-12-11T03:03:12.432Z,5.68
2022-12-11T03:05:39.897Z,6.02
2022-12-11T03:08:06.743Z,5.65
2022-12-11T03:10:33.662Z,5.80
2022-12-11T03:13:00.842Z,6.17
2022-12-11T03:15:36.664Z,6.35
2022-12-11T03:18:15.242Z,6.28
2022-12-11T03:20:48.028Z,6.25
2022-12-11T03:23:21.672Z,6.02
2022-12-11T03:25:57.981Z,5.93
2022-12-11T03:28:29.942Z,5.87
2022-12-11T03:30:57.227Z,6.26
2022-12-11T03:33:28.173Z,6.67
2022-12-11T03:35:57.726Z,6.52
2022-12-11T03:38:28.766Z,6.62
2022-12-11T03:40:58.859Z,7.00
2022-12-11T03:43:26.921Z,6.18
2022-12-11T03:45:54.482Z,6.39
2022-12-11T03:48:21.601Z,6.26
2022-12-11T03:50:49.089Z,6.66
2022-12-11T03:53:17.015Z,6.47
2022-12-11T03:55:43.871Z,6.68
2022-12-11T03:58:11.082Z,6.15
2022-12-11T04:00:38.134Z,6.80
2022-12-11T04:03:14.453Z,6.85
2022-12-11T04:05:49.354Z,7.06
2022-12-11T04:08:17.589Z,5.90
2022-12-11T04:10:44.645Z,6.27
2022-12-11T04:13:11.637Z,6.58
2022-12-11T04:15:40.364Z,6.52
2022-12-11T04:18:29.166Z,6.26
2022-12-11T04:21:14.954Z,6.82
2022-12-11T04:24:00.399Z,7.02
2022-12-11T04:26:27.520Z,6.52
2022-12-11T04:28:54.373Z,5.68
2022-12-11T04:31:22.557Z,6.05
2022-12-11T04:33:49.890Z,5.45
2022-12-11T04:36:17.105Z,5.82
2022-12-11T04:38:43.760Z,6.01
2022-12-11T04:41:14.601Z,5.99
2022-12-11T04:43:41.974Z,6.25
2022-12-11T04:46:11.234Z,6.30
2022-12-11T04:48:38.749Z,6.21
2022-12-11T04:51:06.114Z,6.36
2022-12-11T04:53:33.316Z,6.06
2022-12-11T04:56:00.040Z,5.79
2022-12-11T04:58:27.855Z,6.22
2022-12-11T05:00:54.684Z,6.02
2022-12-11T05:03:21.624Z,6.23
2022-12-11T05:05:53.153Z,6.45
2022-12-11T05:08:20.866Z,6.49
2022-12-11T05:10:58.509Z,6.76
2022-12-11T05:13:25.606Z,5.74
2022-12-11T05:15:52.353Z,6.17
2022-12-11T05:18:19.283Z,6.48
2022-12-11T05:20:45.947Z,6.46
2022-12-11T05:23:13.104Z,6.72
2022-12-11T05:25:39.891Z,6.55
2022-12-11T05:28:06.808Z,6.11
2022-12-11T05:30:33.584Z,6.56
2022-12-11T05:33:00.504Z,6.28
2022-12-11T05:35:27.376Z,6.33
2022-12-11T05:37:54.159Z,5.95
2022-12-11T05:40:21.657Z,5.81
2022-12-11T05:42:48.558Z,6.00
2022-12-11T05:45:15.525Z,6.37
2022-12-11T05:47:42.492Z,5.98
2022-12-11T05:50:10.999Z,6.23
2022-12-11T05:52:37.844Z,6.76
2022-12-11T05:55:04.796Z,6.62
2022-12-11T05:57:31.635Z,6.40
2022-12-11T05:59:58.324Z,6.48
2022-12-11T06:02:25.298Z,6.51
2022-12-11T06:04:52.185Z,6.55
2022-12-11T06:07:18.938Z,6.36
2022-12-11T06:09:45.656Z,6.54
2022-12-11T06:12:12.438Z,6.30
2022-12-11T06:14:39.425Z,6.06
2022-12-11T06:17:06.205Z,6.46
2022-12-11T06:19:36.756Z,6.39
2022-12-11T06:22:04.318Z,6.33
2022-12-11T06:24:31.183Z,6.52
2022-12-11T06:26:58.346Z,6.53
2022-12-11T06:29:25.110Z,6.33
2022-12-11T06:31:51.900Z,6.54
2022-12-11T06:34:18.799Z,6.57
2022-12-11T06:36:45.488Z,6.35
2022-12-11T06:39:12.333Z,6.63
2022-12-11T06:41:39.161Z,6.02
2022-12-11T06:44:05.899Z,6.33
2022-12-11T06:46:32.590Z,6.52
2022-12-11T06:48:59.462Z,5.97
2022-12-11T06:51:26.482Z,6.29
2022-12-11T06:53:55.616Z,6.49
2022-12-11T06:56:24.055Z,6.07
2022-12-11T06:58:51.998Z,5.95
2022-12-11T07:01:22.967Z,6.25
2022-12-11T07:03:50.082Z,6.45
2022-12-11T07:06:16.836Z,6.39
2022-12-11T07:08:43.845Z,5.95
2022-12-11T07:11:12.842Z,6.15
2022-12-11T07:13:40.514Z,5.79
2022-12-11T07:16:11.085Z,5.79
2022-12-11T07:18:43.867Z,5.57
2022-12-11T07:21:13.076Z,5.59
2022-12-11T07:23:40.290Z,5.48
2022-12-11T07:26:09.708Z,5.23
2022-12-11T07:28:36.673Z,5.25
2022-12-11T07:31:11.157Z,5.52
2022-12-11T07:33:37.964Z,5.70
2022-12-11T07:36:06.665Z,5.38
2022-12-11T07:38:33.824Z,5.20
2022-12-11T07:41:08.311Z,5.54
2022-12-11T07:43:35.758Z,5.93
2022-12-11T07:46:03.990Z,5.56
2022-12-11T07:48:31.441Z,5.43
2022-12-11T07:51:26.505Z,5.40
2022-12-11T07:53:55.323Z,5.26
2022-12-11T07:56:22.454Z,5.25
2022-12-11T07:58:50.192Z,5.34
2022-12-11T08:01:29.226Z,5.51
2022-12-11T08:03:57.012Z,5.58
2022-12-11T08:06:29.689Z,5.67
2022-12-11T08:08:57.778Z,5.65
2022-12-11T08:11:25.403Z,5.45
2022-12-11T08:13:52.599Z,5.53
2022-12-11T08:16:20.090Z,5.34
2022-12-11T08:18:47.770Z,5.24
2022-12-11T08:21:20.662Z,5.57
2022-12-11T08:23:48.211Z,5.47
2022-12-11T08:26:19.108Z,5.76
2022-12-11T08:28:45.936Z,5.54
2022-12-11T08:31:14.592Z,5.05
2022-12-11T08:33:42.104Z,5.30
2022-12-11T08:36:11.419Z,5.23
2022-12-11T08:38:38.326Z,5.12
2022-12-11T08:41:19.389Z,5.24
2022-12-11T08:43:46.914Z,5.65
2022-12-11T08:46:14.164Z,5.41
2022-12-11T08:48:42.245Z,5.20
2022-12-11T08:51:12.913Z,5.01
2022-12-11T08:53:40.346Z,5.40
2022-12-11T08:56:14.816Z,5.32
2022-12-11T08:58:42.451Z,5.54
2022-12-11T09:01:18.189Z,5.13
2022-12-11T09:03:45.154Z,4.98
2022-12-11T09:06:14.025Z,4.99
2022-12-11T09:08:42.554Z,4.84
2022-12-11T09:11:14.569Z,4.85
2022-12-11T09:13:42.074Z,5.56
2022-12-11T09:16:11.565Z,5.35
2022-12-11T09:18:39.307Z,5.16
2022-12-11T09:21:08.916Z,5.26
2022-12-11T09:23:38.861Z,5.77
2022-12-11T09:26:07.025Z,5.66
2022-12-11T09:28:34.656Z,6.14
2022-12-11T09:31:01.893Z,6.25
2022-12-11T09:33:28.775Z,6.25
2022-12-11T09:36:02.861Z,6.08
2022-12-11T09:38:33.125Z,6.56
2022-12-11T09:41:00.344Z,6.07
2022-12-11T09:43:50.442Z,6.44
2022-12-11T09:46:24.709Z,6.27
2022-12-11T09:48:53.737Z,6.15
2022-12-11T09:51:28.345Z,5.81
2022-12-11T09:53:56.772Z,5.85
2022-12-11T09:56:50.862Z,5.68
2022-12-11T09:59:33.175Z,5.33
2022-12-11T10:02:26.557Z,5.44
2022-12-11T10:05:17.853Z,5.62
2022-12-11T10:07:52.341Z,5.79
2022-12-11T10:10:31.563Z,6.21
2022-12-11T10:13:04.444Z,6.54
2022-12-11T10:16:02.189Z,6.37
2022-12-11T10:18:29.997Z,5.74
2022-12-11T10:20:57.236Z,5.89
2022-12-11T10:23:57.321Z,6.56
2022-12-11T10:26:25.354Z,6.66
2022-12-11T10:28:52.134Z,6.68
2022-12-11T10:31:56.122Z,6.46
2022-12-11T10:34:26.100Z,6.75
2022-12-11T10:37:00.181Z,6.28
2022-12-11T10:39:27.769Z,6.02
2022-12-11T10:41:55.735Z,6.29
2022-12-11T10:44:28.114Z,6.32
2022-12-11T10:47:09.732Z,6.37
2022-12-11T10:49:38.244Z,6.39
2022-12-11T10:52:36.006Z,5.95
2022-12-11T10:55:06.417Z,5.61
2022-12-11T10:57:35.587Z,5.99
2022-12-11T11:00:05.091Z,6.18
2022-12-11T11:02:34.448Z,6.12
2022-12-11T11:05:12.762Z,5.90
2022-12-11T11:07:40.018Z,5.98
2022-12-11T11:10:06.917Z,6.34
2022-12-11T11:12:50.309Z,5.83
2022-12-11T11:15:25.248Z,6.01
2022-12-11T11:17:56.317Z,6.17
2022-12-11T11:20:28.549Z,5.94
2022-12-11T11:23:12.244Z,5.91
2022-12-11T11:25:39.164Z,6.07
2022-12-11T11:28:11.390Z,6.49
2022-12-11T11:30:42.429Z,6.71
2022-12-11T11:33:20.485Z,6.60
2022-12-11T11:36:04.743Z,6.67
2022-12-11T11:38:39.815Z,7.24
2022-12-11T11:41:15.767Z,6.77
2022-12-11T11:43:51.670Z,6.90
2022-12-11T11:46:29.895Z,6.74
2022-12-11T11:49:25.152Z,6.76
2022-12-11T11:52:00.064Z,6.82
2022-12-11T11:54:54.799Z,6.53
2022-12-11T11:57:27.811Z,6.77
2022-12-11T11:59:57.546Z,6.46
2022-12-11T12:02:24.294Z,6.46
2022-12-11T12:04:52.150Z,6.54
2022-12-11T12:07:47.821Z,6.57
2022-12-11T12:10:27.001Z,6.85
2022-12-11T12:13:44.716Z,6.45
2022-12-11T12:16:43.773Z,7.28
2022-12-11T12:19:07.965Z,6.44
2022-12-11T12:21:36.966Z,6.34
2022-12-11T12:24:31.376Z,7.09
2022-12-11T12:27:50.878Z,7.27
2022-12-11T12:30:16.115Z,6.58
2022-12-11T12:33:09.764Z,7.17
2022-12-11T12:35:38.977Z,7.19
2022-12-11T12:38:06.991Z,6.93
2022-12-11T12:40:41.358Z,7.10
2022-12-11T12:43:29.537Z,7.07
2022-12-11T12:46:04.508Z,6.86
2022-12-11T12:48:31.581Z,7.04
2022-12-11T12:50:58.900Z,6.59
2022-12-11T12:53:29.529Z,6.52
2022-12-11T12:55:56.847Z,6.47
2022-12-11T12:58:35.957Z,6.82
2022-12-11T13:01:14.265Z,6.67
2022-12-11T13:04:04.171Z,6.97
2022-12-11T13:06:47.875Z,7.12
2022-12-11T13:09:24.448Z,7.52
2022-12-11T13:11:57.880Z,7.28
2022-12-11T13:14:30.347Z,7.09
2022-12-11T13:17:28.853Z,7.36
2022-12-11T13:20:18.044Z,7.46
2022-12-11T13:23:19.139Z,7.07
2022-12-11T13:25:52.501Z,6.93
2022-12-11T13:28:39.846Z,6.77
2022-12-11T13:31:19.114Z,7.09
2022-12-11T13:33:51.574Z,6.80
2022-12-11T13:36:24.118Z,6.89
2022-12-11T13:39:05.796Z,7.25
2022-12-11T13:41:35.665Z,7.01
2022-12-11T13:44:07.129Z,6.76
2022-12-11T13:46:36.064Z,6.68
2022-12-11T13:49:06.957Z,6.98
2022-12-11T13:51:38.072Z,6.61
2022-12-11T13:54:16.995Z,7.22
2022-12-11T13:57:35.355Z,7.46
2022-12-11T14:00:19.906Z,7.27
2022-12-11T14:02:46.855Z,7.23
2022-12-11T14:05:15.697Z,7.50
2022-12-11T14:07:50.548Z,7.47
2022-12-11T14:10:27.454Z,6.74
2022-12-11T14:12:59.286Z,6.45
2022-12-11T14:15:27.982Z,6.93
2022-12-11T14:17:56.465Z,7.23
2022-12-11T14:20:26.352Z,7.24
2022-12-11T14:22:53.390Z,7.50
2022-12-11T14:25:27.066Z,7.01
2022-12-11T14:27:57.349Z,6.97
2022-12-11T14:30:43.411Z,7.24
2022-12-11T14:33:16.357Z,6.75
2022-12-11T14:35:44.743Z,6.40
2022-12-11T14:38:18.355Z,6.52
2022-12-11T14:40:49.848Z,6.65
2022-12-11T14:43:31.004Z,6.99
2022-12-11T14:46:06.717Z,6.65
2022-12-11T14:48:38.515Z,6.85
2022-12-11T14:51:09.137Z,6.98
2022-12-11T14:53:42.809Z,6.50
2022-12-11T14:56:18.042Z,7.10
2022-12-11T14:58:59.305Z,7.49
2022-12-11T15:01:29.530Z,7.79
2022-12-11T15:04:15.114Z,7.58
2022-12-11T15:06:56.660Z,7.53
2022-12-11T15:09:26.906Z,7.79
2022-12-11T15:11:56.446Z,7.79
2022-12-11T15:14:24.316Z,7.35
2022-12-11T15:16:54.972Z,7.37
2022-12-11T15:19:25.028Z,7.50
2022-12-11T15:22:09.554Z,7.09
2022-12-11T15:24:40.858Z,7.54
2022-12-11T15:27:33.993Z,7.66
2022-12-11T15:30:00.806Z,7.81
2022-12-11T15:32:27.632Z,7.88
2022-12-11T15:34:56.930Z,7.39
2022-12-11T15:37:36.661Z,7.38
2022-12-11T15:40:05.913Z,7.49
2022-12-11T15:42:36.431Z,7.37
2022-12-11T15:45:06.610Z,7.30
2022-12-11T15:47:34.153Z,7.17
2022-12-11T15:50:17.557Z,7.27
2022-12-11T15:52:45.060Z,7.37
2022-12-11T15:55:12.569Z,7.38
2022-12-11T15:57:45.304Z,7.85
2022-12-11T16:00:18.857Z,8.00
2022-12-11T16:02:46.820Z,7.96
2022-12-11T16:05:14.829Z,7.89
2022-12-11T16:07:42.072Z,7.82
2022-12-11T16:10:19.150Z,8.05
2022-12-11T16:13:00.326Z,7.75
2022-12-11T16:15:27.633Z,8.00
2022-12-11T16:18:14.396Z,7.92
2022-12-11T16:20:42.743Z,7.83
2022-12-11T16:23:10.300Z,7.69
2022-12-11T16:25:39.109Z,7.62
2022-12-11T16:28:07.112Z,7.56
2022-12-11T16:30:38.999Z,7.73
2022-12-11T16:33:12.748Z,7.94
2022-12-11T16:35:43.585Z,7.67
2022-12-11T16:38:10.981Z,7.77
2022-12-11T16:40:41.821Z,7.44
2022-12-11T16:46:12.472Z,7.73
2022-12-11T16:48:39.454Z,7.89
2022-12-11T16:54:10.707Z,7.23
2022-12-11T16:56:38.675Z,7.32
2022-12-11T16:59:05.894Z,7.15
2022-12-11T17:01:33.588Z,7.33
2022-12-11T17:04:00.861Z,7.34
2022-12-11T17:06:28.554Z,7.39
2022-12-11T17:08:58.663Z,7.37
2022-12-11T17:11:26.623Z,7.12
2022-12-11T17:14:04.088Z,7.24
2022-12-11T17:16:34.773Z,7.01
2022-12-11T17:19:07.449Z,7.48
2022-12-11T17:21:34.508Z,7.03
2022-12-11T17:24:01.535Z,7.45
2022-12-11T17:26:50.974Z,7.40
2022-12-11T17:29:18.190Z,7.43
2022-12-11T17:31:45.468Z,7.00
2022-12-11T17:34:12.755Z,6.97
2022-12-11T17:36:39.666Z,7.13
2022-12-11T17:39:06.480Z,7.47
2022-12-11T17:41:33.525Z,7.25
2022-12-11T17:44:00.613Z,6.32
2022-12-11T17:46:37.144Z,6.80
2022-12-11T17:49:10.947Z,7.02
2022-12-11T17:51:38.018Z,7.19
2022-12-11T17:54:04.882Z,6.90
2022-12-11T17:56:35.027Z,6.98
2022-12-11T17:59:16.894Z,6.30
2022-12-11T18:01:46.841Z,6.04
2022-12-11T18:04:17.855Z,6.09
2022-12-11T18:06:54.017Z,6.41
2022-12-11T18:09:25.725Z,6.33
2022-12-11T18:11:57.427Z,5.79
2022-12-11T18:14:26.308Z,5.87
2022-12-11T18:19:46.186Z,5.96
2022-12-11T18:22:13.243Z,5.68
2022-12-11T18:24:40.939Z,5.84
2022-12-11T18:27:11.197Z,6.16
2022-12-11T18:29:38.410Z,6.18
2022-12-11T18:32:05.307Z,6.04
2022-12-11T18:34:32.277Z,5.70
2022-12-11T18:36:59.486Z,5.85
2022-12-11T18:39:26.503Z,5.66
2022-12-11T18:42:16.565Z,5.77
2022-12-11T18:44:40.408Z,6.03
2022-12-11T18:47:07.295Z,5.44
2022-12-11T18:49:34.209Z,5.67
2022-12-11T18:52:01.117Z,5.59
2022-12-11T18:54:29.528Z,5.63
2022-12-11T18:56:57.232Z,5.75
2022-12-11T18:59:24.307Z,5.82
2022-12-11T19:01:51.238Z,5.76
2022-12-11T19:04:18.876Z,5.42
2022-12-11T19:06:47.846Z,5.35
2022-12-11T19:09:15.239Z,5.54
2022-12-11T19:11:42.278Z,5.65
2022-12-11T19:14:09.732Z,5.41
2022-12-11T19:16:43.816Z,5.44
2022-12-11T19:19:19.834Z,5.34
2022-12-11T19:21:47.282Z,5.40
2022-12-11T19:24:20.430Z,5.62
2022-12-11T19:26:47.927Z,5.54
2022-12-11T19:29:27.641Z,5.27
2022-12-11T19:31:55.813Z,5.53
2022-12-11T19:34:23.596Z,5.22
2022-12-11T19:36:50.769Z,5.62
2022-12-11T19:39:19.900Z,5.59
2022-12-11T19:42:01.744Z,5.97
2022-12-11T19:47:46.505Z,6.16
2022-12-11T19:50:13.447Z,5.75
2022-12-11T19:52:45.805Z,6.09
2022-12-11T19:55:15.224Z,5.97
2022-12-11T19:57:42.326Z,5.99
2022-12-11T20:00:09.720Z,5.50
2022-12-11T20:02:39.165Z,5.71
2022-12-11T20:05:06.885Z,5.25
2022-12-11T20:07:33.907Z,5.44
2022-12-11T20:10:06.494Z,5.40
2022-12-11T20:12:34.609Z,5.22
2022-12-11T20:15:06.320Z,4.70
2022-12-11T20:18:03.532Z,4.70
2022-12-11T20:20:33.709Z,4.69
2022-12-11T20:23:01.112Z,4.52
2022-12-11T20:25:28.384Z,4.60
2022-12-11T20:28:00.662Z,4.43
2022-12-11T20:30:27.560Z,4.49
2022-12-11T20:32:54.421Z,4.42
2022-12-11T20:35:21.548Z,4.53
2022-12-11T20:37:48.408Z,4.51
2022-12-11T20:40:15.419Z,5.09
2022-12-11T20:42:42.802Z,4.88
2022-12-11T20:45:10.893Z,5.21
2022-12-11T20:47:38.496Z,4.51
2022-12-11T20:50:07.176Z,4.84
2022-12-11T20:52:36.651Z,4.00
2022-12-11T20:55:04.988Z,4.27
2022-12-11T20:57:32.649Z,4.08
2022-12-11T20:59:59.514Z,4.35
2022-12-11T21:02:26.503Z,4.20
2022-12-11T21:04:53.548Z,4.17
2022-12-11T21:07:22.484Z,4.41
2022-12-11T21:09:49.589Z,4.73
2022-12-11T21:12:17.547Z,4.31
2022-12-11T21:14:45.666Z,4.59
2022-12-11T21:17:14.021Z,4.37
2022-12-11T21:19:43.121Z,4.33
2022-12-11T21:22:10.390Z,4.27
2022-12-11T21:24:37.448Z,4.45
2022-12-11T21:27:04.635Z,4.22
2022-12-11T21:29:31.668Z,4.61
2022-12-11T21:31:58.760Z,4.93
2022-12-11T21:34:26.505Z,4.33
2022-12-11T21:36:56.926Z,4.38
2022-12-11T21:39:25.421Z,4.65
2022-12-11T21:41:53.055Z,4.49
2022-12-11T21:47:09.942Z,5.29
2022-12-11T21:49:37.545Z,5.17
2022-12-11T21:52:15.622Z,4.92
2022-12-11T21:54:45.977Z,5.26
2022-12-11T21:57:12.893Z,5.64
2022-12-11T21:59:39.661Z,5.77
2022-12-11T22:02:06.671Z,5.82
2022-12-11T22:04:33.840Z,5.71
2022-12-11T22:07:00.958Z,5.40
2022-12-11T22:09:27.830Z,5.42
2022-12-11T22:11:58.316Z,4.89
2022-12-11T22:14:25.736Z,5.03
2022-12-11T22:16:52.542Z,5.25
2022-12-11T22:19:19.381Z,5.13
2022-12-11T22:21:46.569Z,5.16
2022-12-11T22:24:14.216Z,5.48
2022-12-11T22:26:41.005Z,5.32
2022-12-11T22:29:08.025Z,5.46
2022-12-11T22:31:34.881Z,5.22
2022-12-11T22:34:01.748Z,5.32
2022-12-11T22:36:28.595Z,5.66
2022-12-11T22:38:55.606Z,5.56
2022-12-11T22:41:28.423Z,5.59
2022-12-11T22:43:55.825Z,4.96
2022-12-11T22:46:25.062Z,5.21
2022-12-11T22:48:52.170Z,4.81
2022-12-11T22:51:19.410Z,5.51
2022-12-11T22:53:46.321Z,5.70
2022-12-11T22:56:13.899Z,5.64
2022-12-11T22:58:41.051Z,5.62
2022-12-11T23:01:12.965Z,5.63
2022-12-11T23:03:39.794Z,5.63
2022-12-11T23:06:12.237Z,5.59
2022-12-11T23:08:39.782Z,5.54
2022-12-11T23:11:12.040Z,5.31
2022-12-11T23:13:40.048Z,5.69
2022-12-11T23:16:08.454Z,5.37
2022-12-11T23:18:35.394Z,4.89
2022-12-11T23:21:02.495Z,4.99
2022-12-11T23:23:29.240Z,5.28
2022-12-11T23:25:56.780Z,5.48
2022-12-11T23:28:23.764Z,5.04
2022-12-11T23:30:50.811Z,5.32
2022-12-11T23:33:17.719Z,5.57
2022-12-11T23:35:45.450Z,5.41
2022-12-11T23:38:12.281Z,5.56
2022-12-11T23:40:39.537Z,5.54
2022-12-11T23:43:10.282Z,5.56
2022-12-11T23:45:37.079Z,5.57
2022-12-11T23:48:03.951Z,5.83
2022-12-11T23:50:32.935Z,5.80
2022-12-11T23:52:59.835Z,5.88
2022-12-11T23:55:29.390Z,5.77
2022-12-11T23:57:58.123Z,5.82
